Terminal Aerodrome Forecast
Issued by NWS Pittsburgh, PA

Current Version | Previous Version | Graphics & Text | Print | Product List | Glossary On
Versions: 1 2 3 4 5 6 7 8 9 10 11 12 13 14 15 16 17 18 19 20 21 22 23 24 25 26 27 28 29 30 31 32 33 34 35 36
000
FTUS41 KPBZ 271100
TAFPIT
TAF
KPIT 271132Z 2712/2818 19005KT 6SM BR BKN015
     FM271300 22005KT P6SM BKN025
     FM271600 21008KT P6SM VCSH BKN035
      TEMPO 2720/2723 3SM -TSRA OVC025CB
     FM280800 25006KT P6SM VCSH BKN020=

USA.gov is the U.S. government's official web portal to all federal, state and local government web resources and services.